Terminal Aerodrome Forecast
Issued by NWS Cleveland, OH

Home | Current Version | Previous Version | Graphics & Text | Print | Product List | Glossary On
Versions: 1 2 3 4 5 6 7 8 9 10 11 12 13 14 15 16 17 18 19 20 21 22 23 24 25 26
000
FTUS41 KCLE 202324
TAFTOL
TAF
KTOL 202324Z 2100/2124 07008KT P6SM OVC250
     FM210900 14004KT 6SM BR OVC200
      TEMPO 2111/2114 4SM BR
     FM211400 21008KT P6SM OVC045
      TEMPO 2118/2121 5SM -SHRA BR OVC035
     FM212100 26007KT 5SM -SHRA BR OVC025=

USA.gov is the U.S. government's official web portal to all federal, state and local government web resources and services.